createdAt,value
2023-05-12T04:49:12.436Z,43.0185
2023-05-12T04:50:13.886Z,43.6369
2023-05-12T04:51:15.405Z,42.9262
2023-05-12T04:52:16.922Z,42.8338
2023-05-12T04:53:18.463Z,42.7431
2023-05-12T04:54:19.940Z,42.6292
2023-05-12T04:55:21.756Z,42.5200
2023-05-12T04:56:23.017Z,42.4308
2023-05-12T04:57:24.506Z,42.3469
2023-05-12T04:58:26.046Z,42.2777
2023-05-12T04:59:27.620Z,42.2054
2023-05-12T05:00:29.057Z,42.1285
2023-05-12T05:01:30.683Z,42.0592
2023-05-12T05:02:32.194Z,41.9992
2023-05-12T05:03:33.641Z,41.9469
2023-05-12T05:04:35.158Z,41.9300
2023-05-12T05:05:36.642Z,41.9123
2023-05-12T05:06:38.190Z,41.9162
2023-05-12T05:07:39.672Z,41.9108
2023-05-12T05:08:41.193Z,41.8985
2023-05-12T05:09:42.715Z,41.9031
2023-05-12T05:10:44.266Z,41.9046
2023-05-12T05:11:45.781Z,41.9092
2023-05-12T05:12:47.336Z,41.9646
2023-05-12T05:13:48.821Z,41.9792
2023-05-12T05:14:50.311Z,41.9769
2023-05-12T05:15:51.877Z,41.9769
2023-05-12T05:16:53.362Z,41.9523
2023-05-12T05:17:54.887Z,41.9308
2023-05-12T05:18:58.154Z,41.9185
2023-05-12T05:19:59.586Z,41.9231
2023-05-12T05:20:59.486Z,41.9515
2023-05-12T05:22:00.926Z,41.9400
2023-05-12T05:23:02.504Z,41.9008
2023-05-12T05:24:03.988Z,41.9123
2023-05-12T05:25:05.526Z,41.8892
2023-05-12T05:26:07.029Z,41.8823
2023-05-12T05:27:08.537Z,41.8777
2023-05-12T05:28:10.057Z,41.8615
2023-05-12T05:29:11.569Z,41.8746
2023-05-12T05:30:13.100Z,41.8485
2023-05-12T05:31:14.635Z,41.8423
2023-05-12T05:32:16.141Z,41.8431
2023-05-12T05:33:17.651Z,41.8231
2023-05-12T05:34:19.220Z,41.7731
2023-05-12T05:35:21.066Z,41.7708
2023-05-12T05:36:22.234Z,41.7815
2023-05-12T05:37:23.764Z,41.7438
2023-05-12T05:38:25.275Z,41.7377
2023-05-12T05:39:26.834Z,41.7400
2023-05-12T05:40:30.568Z,41.8069
2023-05-12T05:41:30.548Z,41.8562
2023-05-12T05:42:31.358Z,41.7400
2023-05-12T05:43:32.873Z,41.6831
2023-05-12T05:44:36.096Z,41.6615
2023-05-12T05:45:35.932Z,41.7562
2023-05-12T05:46:37.531Z,41.7585
2023-05-12T05:47:39.053Z,41.6462
2023-05-12T05:48:40.504Z,41.6385
2023-05-12T05:49:41.981Z,41.6146
2023-05-12T05:50:43.501Z,41.6031
2023-05-12T05:51:45.035Z,41.6077
2023-05-12T05:52:46.564Z,41.5692
2023-05-12T05:53:48.106Z,41.5585
2023-05-12T05:54:49.574Z,41.5400
2023-05-12T05:55:51.094Z,41.5208
2023-05-12T05:56:52.626Z,41.4877
2023-05-12T05:57:54.125Z,41.4585
2023-05-12T05:58:55.663Z,41.4769
2023-05-12T05:59:57.217Z,41.4692
2023-05-12T06:00:58.706Z,41.4569
2023-05-12T06:02:00.338Z,41.4554
2023-05-12T06:03:01.816Z,41.4408
2023-05-12T06:04:03.407Z,41.4408
2023-05-12T06:05:04.786Z,41.3585
2023-05-12T06:06:06.299Z,41.3331
2023-05-12T06:07:07.810Z,41.2715
2023-05-12T06:08:09.316Z,41.2538
2023-05-12T06:09:10.850Z,41.3169
2023-05-12T06:10:12.384Z,41.2977
2023-05-12T06:11:15.301Z,41.2169
2023-05-12T06:12:15.901Z,41.2046
2023-05-12T06:13:17.307Z,41.1869
2023-05-12T06:14:18.428Z,41.2008
2023-05-12T06:15:20.110Z,41.1715
2023-05-12T06:16:21.478Z,41.1954
2023-05-12T06:17:23.028Z,41.2108
2023-05-12T06:18:24.559Z,41.2354
2023-05-12T06:19:26.042Z,41.2354
2023-05-12T06:20:27.561Z,41.2062
2023-05-12T06:21:29.079Z,41.2669
2023-05-12T06:22:30.577Z,41.3785
2023-05-12T06:23:32.106Z,41.5015
2023-05-12T06:24:33.624Z,41.5431
2023-05-12T06:25:35.147Z,41.5985
2023-05-12T06:26:36.671Z,41.7377
2023-05-12T06:27:38.153Z,41.7215
2023-05-12T06:28:39.667Z,41.8331
2023-05-12T06:29:41.211Z,41.8831
2023-05-12T06:30:42.735Z,41.9515
2023-05-12T06:31:44.274Z,42.1500
2023-05-12T06:32:45.866Z,42.3062
2023-05-12T06:33:47.295Z,42.3054
2023-05-12T06:34:48.771Z,42.3169
2023-05-12T06:35:50.319Z,42.4015
2023-05-12T06:36:53.750Z,42.2808
2023-05-12T06:37:53.366Z,42.5746
2023-05-12T06:38:54.887Z,42.8523
2023-05-12T06:39:56.384Z,42.8523
2023-05-12T06:40:57.883Z,43.1400
2023-05-12T06:42:00.239Z,42.8315
2023-05-12T06:43:00.920Z,43.1538
2023-05-12T06:44:02.485Z,43.1323
2023-05-12T06:45:03.952Z,42.9362
2023-05-12T06:46:05.505Z,42.9762
2023-05-12T06:47:06.998Z,43.1362
2023-05-12T06:48:08.569Z,43.3777
2023-05-12T06:49:10.003Z,43.3823
2023-05-12T06:50:11.535Z,43.1738
2023-05-12T06:51:13.046Z,43.1415
2023-05-12T06:52:14.555Z,43.0300
2023-05-12T06:53:16.085Z,43.3115
2023-05-12T06:54:17.600Z,43.1638
2023-05-12T06:55:19.330Z,43.1062
2023-05-12T06:56:20.640Z,43.0131
2023-05-12T06:57:22.135Z,43.0069
2023-05-12T06:58:23.676Z,43.1246
2023-05-12T06:59:25.226Z,42.9631
2023-05-12T07:00:26.719Z,42.9600
2023-05-12T07:01:28.254Z,42.7746
2023-05-12T07:02:29.769Z,42.9531
2023-05-12T07:03:31.278Z,43.1662
2023-05-12T07:04:32.744Z,43.4385
2023-05-12T07:05:34.316Z,43.3962
2023-05-12T07:06:35.803Z,43.3277
2023-05-12T07:07:37.315Z,43.2800
2023-05-12T07:08:38.822Z,43.4138
2023-05-12T07:09:40.339Z,43.5185
2023-05-12T07:10:41.851Z,43.3562
2023-05-12T07:11:43.457Z,43.3762
2023-05-12T07:12:44.901Z,43.4308
2023-05-12T07:13:46.389Z,43.7769
2023-05-12T07:14:47.902Z,43.5500
2023-05-12T07:15:49.464Z,43.3908
2023-05-12T07:16:50.951Z,43.3085
2023-05-12T07:17:52.488Z,43.3754
2023-05-12T07:18:54.040Z,43.3977
2023-05-12T07:19:55.482Z,43.3862
2023-05-12T07:20:57.024Z,43.2223
2023-05-12T07:21:58.520Z,43.1038
2023-05-12T07:23:00.056Z,43.1369
2023-05-12T07:24:01.539Z,43.3485
2023-05-12T07:25:03.096Z,43.3715
2023-05-12T07:26:04.599Z,43.6315
2023-05-12T07:27:06.095Z,43.5777
2023-05-12T07:28:07.648Z,43.3523
2023-05-12T07:29:09.751Z,43.5623
2023-05-12T07:30:10.632Z,43.6169
2023-05-12T07:31:12.188Z,43.4538
2023-05-12T07:32:13.656Z,43.4662
2023-05-12T07:33:15.203Z,43.5923
2023-05-12T07:34:16.708Z,43.3992
2023-05-12T07:35:18.426Z,43.3215
2023-05-12T07:36:21.870Z,43.4746
2023-05-12T07:37:21.242Z,43.5638
2023-05-12T07:38:22.768Z,43.3754
2023-05-12T07:39:24.287Z,43.2085
2023-05-12T07:40:25.894Z,43.3146
2023-05-12T07:41:27.354Z,42.8777
2023-05-12T07:42:28.866Z,42.7077
2023-05-12T07:43:30.352Z,42.6600
2023-05-12T07:44:31.871Z,42.4823
2023-05-12T07:45:33.384Z,42.3262
2023-05-12T07:46:34.948Z,42.3608
2023-05-12T07:47:36.509Z,42.6985
2023-05-12T07:48:37.937Z,42.3854
2023-05-12T07:49:39.452Z,42.4469
2023-05-12T07:50:40.946Z,42.1746
2023-05-12T07:51:42.476Z,42.1485
2023-05-12T07:52:44.009Z,42.1662
2023-05-12T07:53:45.520Z,42.1131
2023-05-12T07:54:47.015Z,42.0431
2023-05-12T07:55:48.516Z,41.9531
2023-05-12T07:56:50.041Z,41.9485
2023-05-12T07:57:51.577Z,41.9092
2023-05-12T07:58:53.119Z,41.9077
2023-05-12T07:59:54.605Z,41.9638
2023-05-12T08:00:56.094Z,41.9262
2023-05-12T08:01:57.694Z,41.8662
2023-05-12T08:02:59.353Z,41.8662
2023-05-12T08:04:00.794Z,41.8777
2023-05-12T08:05:02.194Z,41.7900
2023-05-12T08:06:03.689Z,41.7285
2023-05-12T08:07:05.220Z,41.7600
2023-05-12T08:08:06.706Z,41.7885
2023-05-12T08:09:08.261Z,41.8154
2023-05-12T08:10:09.765Z,41.8662
2023-05-12T08:11:12.086Z,41.8815
2023-05-12T08:12:12.778Z,41.9277
2023-05-12T08:13:14.299Z,41.8885
2023-05-12T08:14:15.806Z,41.7946
2023-05-12T08:15:17.337Z,41.8015
2023-05-12T08:16:18.897Z,41.7792
2023-05-12T08:17:20.445Z,41.7238
2023-05-12T08:18:21.929Z,41.7685
2023-05-12T08:19:23.376Z,41.7562
2023-05-12T08:20:24.919Z,41.7038
2023-05-12T08:21:26.418Z,41.6338
2023-05-12T08:22:27.942Z,41.6708
2023-05-12T08:23:29.473Z,41.6769
2023-05-12T08:24:30.959Z,41.6231
2023-05-12T08:25:32.477Z,41.4977
2023-05-12T08:26:34.024Z,41.4500
2023-05-12T08:27:35.539Z,41.5531
2023-05-12T08:28:37.054Z,41.6362
2023-05-12T08:29:38.537Z,41.6254
2023-05-12T08:30:40.108Z,41.5769
2023-05-12T08:31:41.640Z,41.5692
2023-05-12T08:32:43.134Z,41.5300
2023-05-12T08:33:44.631Z,41.6315
2023-05-12T08:34:46.136Z,41.5385
2023-05-12T08:35:47.629Z,41.5454
2023-05-12T08:36:49.141Z,41.6162
2023-05-12T08:37:50.691Z,41.6992
2023-05-12T08:38:52.215Z,41.6954
2023-05-12T08:39:53.803Z,41.7400
2023-05-12T08:40:55.224Z,41.8531
2023-05-12T08:41:56.740Z,41.9031
2023-05-12T08:42:59.835Z,41.7792
2023-05-12T08:44:00.600Z,41.7677
2023-05-12T08:45:01.340Z,41.7254
2023-05-12T08:46:02.822Z,41.6777
2023-05-12T08:47:04.334Z,41.5262
2023-05-12T08:48:05.876Z,41.6131
2023-05-12T08:49:07.385Z,41.5569
2023-05-12T08:50:08.952Z,41.6546
2023-05-12T08:51:10.493Z,41.6938
2023-05-12T08:52:12.008Z,41.7462
2023-05-12T08:53:13.538Z,41.6738
2023-05-12T08:54:15.058Z,41.7177
2023-05-12T08:55:16.573Z,41.6823
2023-05-12T08:57:19.730Z,41.7269
2023-05-12T08:58:27.813Z,41.7215
2023-05-12T08:59:22.666Z,41.6346
2023-05-12T09:00:24.285Z,41.5208
2023-05-12T09:01:25.717Z,41.4492
2023-05-12T09:02:29.406Z,41.5100
2023-05-12T09:03:27.237Z,41.4200
2023-05-12T09:04:28.570Z,41.4608
2023-05-12T09:05:29.733Z,41.4523
2023-05-12T09:06:31.184Z,41.4762
2023-05-12T09:07:32.223Z,41.3992
2023-05-12T09:08:33.516Z,41.3546
2023-05-12T09:09:34.747Z,41.2985
2023-05-12T09:10:36.165Z,41.2369
2023-05-12T09:11:37.221Z,41.2923
2023-05-12T09:12:38.489Z,41.3323
2023-05-12T09:13:39.715Z,41.2746
2023-05-12T09:14:40.999Z,41.3023
2023-05-12T09:15:42.263Z,41.3438
2023-05-12T09:16:43.803Z,41.4315
2023-05-12T09:17:45.312Z,41.4723
2023-05-12T09:18:46.836Z,41.5623
2023-05-12T09:19:48.352Z,41.5731
2023-05-12T09:20:49.884Z,41.6677
2023-05-12T09:21:51.399Z,41.6292
2023-05-12T09:22:52.909Z,41.6762
2023-05-12T09:23:54.415Z,41.7162
2023-05-12T09:24:56.019Z,41.6108
2023-05-12T09:25:57.472Z,41.4915
2023-05-12T09:26:59.013Z,41.5085
2023-05-12T09:28:00.512Z,41.4792
2023-05-12T09:29:02.016Z,41.4415
2023-05-12T09:30:03.562Z,41.3346
2023-05-12T09:31:05.083Z,41.2923
2023-05-12T09:32:06.727Z,41.3731
2023-05-12T09:33:08.213Z,41.4123
2023-05-12T09:34:09.618Z,41.3392
2023-05-12T09:35:11.243Z,41.3754
2023-05-12T09:36:12.660Z,41.2877
2023-05-12T09:37:15.433Z,41.1869
2023-05-12T09:38:15.739Z,41.1115
2023-05-12T09:39:17.237Z,41.0885
2023-05-12T09:40:18.758Z,41.0485
2023-05-12T09:41:20.272Z,41.0608
2023-05-12T09:42:21.786Z,40.9969
2023-05-12T09:43:23.305Z,40.9569
2023-05-12T09:44:24.825Z,40.8631
2023-05-12T09:45:26.327Z,40.8469
2023-05-12T09:46:27.870Z,40.8700
2023-05-12T09:47:29.411Z,40.9223
2023-05-12T09:48:30.898Z,40.9762
2023-05-12T09:49:32.397Z,40.9523
2023-05-12T09:50:44.354Z,41.1769
2023-05-12T09:51:35.420Z,41.2854
2023-05-12T09:52:36.966Z,41.4508
2023-05-12T09:53:38.481Z,41.4985
2023-05-12T09:54:39.984Z,41.4708
2023-05-12T09:55:41.508Z,41.4115
2023-05-12T09:56:43.023Z,41.5808
2023-05-12T09:57:44.579Z,41.2923
2023-05-12T09:58:46.079Z,40.9600
2023-05-12T09:59:47.598Z,40.9854
2023-05-12T10:01:50.679Z,40.7831
2023-05-12T10:02:52.204Z,40.7369
2023-05-12T10:03:53.656Z,40.8300
2023-05-12T10:04:55.217Z,40.8200
2023-05-12T10:05:56.838Z,40.6846
2023-05-12T10:06:58.278Z,40.6846
2023-05-12T10:07:59.764Z,40.6438
2023-05-12T10:09:01.353Z,40.5231
2023-05-12T10:10:02.902Z,40.3823
2023-05-12T10:11:04.399Z,40.2908
2023-05-12T10:12:05.928Z,40.3300
2023-05-12T10:13:07.458Z,40.3046
2023-05-12T10:14:08.940Z,40.2923
2023-05-12T10:15:10.482Z,40.1900
2023-05-12T10:16:11.987Z,40.1369
2023-05-12T10:17:13.550Z,40.0708
2023-05-12T10:18:15.081Z,40.0038
2023-05-12T10:19:16.572Z,39.9562
2023-05-12T10:20:18.064Z,39.7892
2023-05-12T10:21:19.583Z,39.6608
2023-05-12T10:22:21.116Z,39.5962
2023-05-12T10:23:22.662Z,39.4577
2023-05-12T10:24:24.187Z,39.3762
2023-05-12T10:25:25.667Z,39.2085
2023-05-12T10:26:27.251Z,39.1708
2023-05-12T10:27:28.773Z,39.0892
2023-05-12T10:28:30.310Z,38.9223
2023-05-12T10:29:31.867Z,38.8292
2023-05-12T10:30:33.356Z,38.7692
2023-05-12T10:31:34.860Z,38.7085
2023-05-12T10:32:36.456Z,38.7331
2023-05-12T10:33:37.916Z,38.5885
2023-05-12T10:34:39.423Z,38.5077
2023-05-12T10:35:40.954Z,38.4738
2023-05-12T10:36:42.493Z,38.4285
2023-05-12T10:37:44.034Z,38.4262
2023-05-12T10:38:45.539Z,38.4308
2023-05-12T10:39:47.066Z,38.4238
2023-05-12T10:40:48.566Z,38.4546
2023-05-12T10:41:51.122Z,38.4100
2023-05-12T10:42:51.695Z,38.3269
2023-05-12T10:43:53.150Z,38.2885
2023-05-12T10:44:54.686Z,38.2392
2023-05-12T10:45:56.297Z,38.2008
2023-05-12T10:46:57.728Z,38.1946
2023-05-12T10:47:59.320Z,38.2331
2023-05-12T10:49:00.777Z,38.1638
2023-05-12T10:50:02.279Z,38.1031
2023-05-12T10:51:03.787Z,38.0485
2023-05-12T10:52:05.349Z,37.9385
2023-05-12T10:53:08.130Z,37.9492
2023-05-12T10:54:08.370Z,37.9146
2023-05-12T10:55:09.961Z,37.9146
2023-05-12T10:56:11.550Z,37.9046
2023-05-12T10:57:14.994Z,37.9408
2023-05-12T10:58:15.520Z,37.9562
2023-05-12T10:59:16.573Z,37.9592
2023-05-12T11:00:17.893Z,37.9723
2023-05-12T11:01:19.457Z,37.9554
2023-05-12T11:02:20.997Z,37.9862
2023-05-12T11:03:23.355Z,38.1531
2023-05-12T11:04:23.750Z,37.8508
2023-05-12T11:05:25.435Z,37.8062
2023-05-12T11:06:27.149Z,37.7554
2023-05-12T11:07:28.424Z,37.7338
2023-05-12T11:08:30.524Z,37.6546
2023-05-12T11:09:31.318Z,37.6062
2023-05-12T11:10:33.798Z,37.6238
2023-05-12T11:11:34.409Z,37.6123
2023-05-12T11:12:35.890Z,37.5654
2023-05-12T11:13:37.306Z,37.5569
2023-05-12T11:14:38.801Z,37.5177
2023-05-12T11:15:40.336Z,37.4138
2023-05-12T11:16:42.016Z,37.3777
2023-05-12T11:17:43.396Z,37.4938
2023-05-12T11:18:44.914Z,37.7162
2023-05-12T11:19:46.426Z,37.6908
2023-05-12T11:20:47.936Z,37.8715
2023-05-12T11:21:49.435Z,38.0208
2023-05-12T11:22:50.976Z,38.1185
2023-05-12T11:23:52.494Z,38.1077
2023-05-12T11:24:54.110Z,38.2085
2023-05-12T11:25:55.576Z,38.2823
2023-05-12T11:26:57.041Z,38.3523
2023-05-12T11:27:58.557Z,38.4177
2023-05-12T11:29:00.131Z,38.4677
2023-05-12T11:30:01.616Z,38.4885
2023-05-12T11:31:03.198Z,38.5600
2023-05-12T11:32:04.691Z,38.6146
2023-05-12T11:33:06.232Z,39.2092
2023-05-12T11:34:12.500Z,39.9885
2023-05-12T11:35:09.338Z,40.1154
2023-05-12T11:36:10.748Z,39.5038
2023-05-12T11:37:12.272Z,40.0969
2023-05-12T11:38:13.755Z,40.2469
2023-05-12T11:39:15.271Z,40.3485
2023-05-12T11:40:16.793Z,40.6869
2023-05-12T11:41:18.344Z,40.4692
2023-05-12T11:42:21.567Z,40.6585
2023-05-12T11:43:21.386Z,40.2123
2023-05-12T11:44:22.894Z,39.9246
2023-05-12T11:45:24.435Z,39.8769
2023-05-12T11:46:25.992Z,39.6477
2023-05-12T11:47:27.479Z,39.6608
2023-05-12T11:48:28.994Z,39.6723
2023-05-12T11:49:30.543Z,40.0938
2023-05-12T11:50:32.014Z,40.1077
2023-05-12T11:51:33.573Z,39.6169
2023-05-12T11:52:35.085Z,39.5769
2023-05-12T11:53:36.583Z,39.7838
2023-05-12T11:54:38.150Z,39.9838
2023-05-12T11:55:39.654Z,40.0962
2023-05-12T11:56:41.150Z,40.0685
2023-05-12T11:57:42.669Z,39.7962
2023-05-12T11:58:44.208Z,39.5454
2023-05-12T11:59:45.721Z,39.4669
2023-05-12T12:00:47.253Z,39.6446
2023-05-12T12:01:48.797Z,39.5108
2023-05-12T12:02:50.358Z,39.9346
2023-05-12T12:03:51.843Z,40.3277
2023-05-12T12:04:53.401Z,40.0777
2023-05-12T12:05:54.875Z,40.0785
2023-05-12T12:06:56.425Z,40.0608
2023-05-12T12:07:57.890Z,39.6708
2023-05-12T12:08:59.408Z,39.6062
2023-05-12T12:10:00.990Z,39.2546
2023-05-12T12:11:03.846Z,39.1869
2023-05-12T12:12:03.979Z,39.2269
2023-05-12T12:13:05.535Z,39.4677
2023-05-12T12:14:07.012Z,39.3846
2023-05-12T12:15:08.533Z,39.5185
2023-05-12T12:16:10.436Z,39.7423
2023-05-12T12:17:11.636Z,39.6408
2023-05-12T12:18:13.153Z,39.5615
2023-05-12T12:19:14.666Z,39.3346
2023-05-12T12:20:16.117Z,39.6538
2023-05-12T12:21:18.932Z,39.4285
2023-05-12T12:22:19.180Z,39.1923
2023-05-12T12:23:20.720Z,38.9077
2023-05-12T12:24:22.192Z,38.9885
2023-05-12T12:25:23.711Z,38.7762
2023-05-12T12:26:25.273Z,38.7662
2023-05-12T12:27:26.773Z,38.6869
2023-05-12T12:28:28.272Z,38.4785
2023-05-12T12:29:29.836Z,38.3992
2023-05-12T12:30:31.494Z,38.3577
2023-05-12T12:31:32.847Z,38.3892
2023-05-12T12:32:34.388Z,38.3785
2023-05-12T12:33:35.934Z,38.3300
2023-05-12T12:34:37.388Z,38.3585
2023-05-12T12:35:38.916Z,38.2338
2023-05-12T12:36:40.443Z,38.2562
2023-05-12T12:37:41.953Z,38.0523
2023-05-12T12:38:43.475Z,37.8808
2023-05-12T12:39:45.682Z,37.8192
2023-05-12T12:40:46.558Z,37.7423
2023-05-12T12:41:48.705Z,37.7600
2023-05-12T12:42:49.577Z,37.6777
2023-05-12T12:43:51.097Z,37.5715
2023-05-12T12:44:52.594Z,37.5131
2023-05-12T12:45:54.128Z,37.5185
2023-05-12T12:46:55.726Z,37.4623
2023-05-12T12:47:57.194Z,37.4331
2023-05-12T12:48:58.690Z,37.2846
2023-05-12T12:50:00.223Z,37.3592
2023-05-12T12:51:01.720Z,37.2162
2023-05-12T12:52:03.260Z,37.0908
2023-05-12T12:53:04.765Z,37.1369
2023-05-12T12:54:06.264Z,37.0815
2023-05-12T12:55:07.767Z,37.0485
2023-05-12T12:56:09.309Z,37.0362
2023-05-12T12:57:10.820Z,37.0085
2023-05-12T12:58:12.321Z,37.0015
2023-05-12T12:59:13.920Z,36.9854
2023-05-12T13:00:15.365Z,36.9600
2023-05-12T13:01:16.919Z,37.0831
2023-05-12T13:02:18.451Z,36.9708
2023-05-12T13:03:20.555Z,36.9946
2023-05-12T13:04:21.436Z,37.0008
2023-05-12T13:05:23.256Z,37.0515
2023-05-12T13:06:24.497Z,36.9508
2023-05-12T13:07:25.997Z,36.8023
2023-05-12T13:08:27.505Z,36.6931
2023-05-12T13:09:29.059Z,36.7054
2023-05-12T13:10:30.560Z,36.5023
2023-05-12T13:11:32.065Z,36.3854
2023-05-12T13:12:33.630Z,36.3831
2023-05-12T13:13:35.110Z,36.4623
2023-05-12T13:14:36.629Z,36.4831
2023-05-12T13:15:38.192Z,36.5746
2023-05-12T13:16:39.704Z,36.4077
2023-05-12T13:17:41.194Z,36.4577
2023-05-12T13:18:42.782Z,36.4638
2023-05-12T13:19:44.208Z,36.4162
2023-05-12T13:20:45.755Z,36.4323
2023-05-12T13:21:47.282Z,36.4508
2023-05-12T13:22:48.793Z,36.4808
2023-05-12T13:23:50.290Z,36.5869
2023-05-12T13:24:51.842Z,36.5569
2023-05-12T13:25:53.349Z,36.5731
2023-05-12T13:26:54.907Z,36.5915
2023-05-12T13:27:56.397Z,36.6785
2023-05-12T13:28:57.903Z,36.7092
2023-05-12T13:29:59.447Z,36.7008
2023-05-12T13:31:01.013Z,36.7462
2023-05-12T13:32:02.464Z,36.8546
2023-05-12T13:33:05.895Z,36.9354
2023-05-12T13:34:05.525Z,36.9154
2023-05-12T13:35:07.017Z,36.8792
2023-05-12T13:36:08.565Z,36.8177
2023-05-12T13:37:10.499Z,36.7362
2023-05-12T13:38:11.727Z,36.7438
2023-05-12T13:39:13.154Z,36.7762
2023-05-12T13:40:14.638Z,36.7800
2023-05-12T13:41:16.195Z,36.7762
2023-05-12T13:42:17.694Z,36.7731
2023-05-12T13:43:19.205Z,36.5969
2023-05-12T13:44:20.737Z,36.5292
2023-05-12T13:45:22.520Z,36.4346
2023-05-12T13:46:23.812Z,36.4262
2023-05-12T13:47:25.295Z,36.3046
2023-05-12T13:48:26.808Z,36.2269
2023-05-12T13:49:28.365Z,36.1838
2023-05-12T13:50:31.395Z,36.0408
2023-05-12T13:51:32.700Z,36.0908
2023-05-12T13:52:33.912Z,36.0392
2023-05-12T13:53:35.178Z,35.9700
2023-05-12T13:54:36.384Z,35.8815
2023-05-12T13:55:39.974Z,35.9138
2023-05-12T13:56:39.024Z,35.9100
2023-05-12T13:57:40.554Z,35.8738
2023-05-12T13:58:42.064Z,35.9669
2023-05-12T13:59:43.560Z,35.9415
2023-05-12T14:00:45.111Z,35.9831
2023-05-12T14:01:46.741Z,35.9492
2023-05-12T14:02:48.170Z,35.9469
2023-05-12T14:03:49.684Z,35.9808
2023-05-12T14:04:51.227Z,36.0600
2023-05-12T14:05:52.697Z,36.0538
2023-05-12T14:06:54.221Z,36.0562
2023-05-12T14:07:55.786Z,36.0338
2023-05-12T14:08:57.277Z,36.0192
2023-05-12T14:09:58.824Z,36.0300
2023-05-12T14:11:00.314Z,35.9462
2023-05-12T14:12:01.861Z,35.9615
2023-05-12T14:13:03.379Z,35.8223
2023-05-12T14:14:04.924Z,35.7908
2023-05-12T14:15:23.587Z,35.7300
2023-05-12T14:16:08.006Z,35.7746
2023-05-12T14:17:09.450Z,35.9254
2023-05-12T14:18:10.973Z,36.2838
2023-05-12T14:19:12.537Z,36.3769
2023-05-12T14:20:14.024Z,36.6338
2023-05-12T14:21:15.529Z,36.6246
2023-05-12T14:22:25.648Z,36.6738
2023-05-12T14:23:20.811Z,36.7454
2023-05-12T14:24:22.080Z,36.7323
2023-05-12T14:25:23.436Z,36.6800
2023-05-12T14:26:24.544Z,36.5977
2023-05-12T14:27:25.810Z,36.5777
2023-05-12T14:28:27.099Z,36.5892
2023-05-12T14:29:28.288Z,36.5838
2023-05-12T14:30:29.601Z,36.4869
2023-05-12T14:31:30.869Z,36.3415
2023-05-12T14:32:32.357Z,36.3754
